Time;durP1;ratioP1;P1;durP2;ratioP2;P2;SDS_P1;SDS_P2;PMS_P1;PMS_P2;Temp;Humidity;BMP_temperature;BMP_pressure;BME280_temperature;BME280_humidity;BME280_pressure;Samples;Min_cycle;Max_cycle;Signal;HPM_P1;HPM_P2
2023/07/21 05:43:37;;;;;;;;;;;15.70;63.20;;;;;;1424586;26;20375;-66
2023/07/21 05:46:06;;;;;;;;;;;15.80;63.90;;;;;;5074683;28;19917;-66
2023/07/21 05:48:33;;;;;;;;;;;15.70;64.70;;;;;;5075481;28;19908;-65
2023/07/21 05:50:59;;;;;;;;;;;15.80;64.60;;;;;;5075595;28;20359;-69
2023/07/21 05:53:27;;;;;;;269.27;24.40;;;15.80;65.30;;;;;;5073693;28;20389;-67
2023/07/21 05:55:55;;;;;;;16.48;3.42;;;15.90;67.90;;;;;;5073327;28;20051;-67
2023/07/21 05:58:22;;;;;;;4.93;0.98;;;16.20;64.80;;;;;;5075047;28;20395;-66
2023/07/21 06:00:50;;;;;;;4.60;1.00;;;16.00;64.00;;;;;;5074768;28;20557;-66
2023/07/21 06:03:18;;;;;;;4.65;1.20;;;15.90;64.50;;;;;;5073294;28;20037;-66
2023/07/21 06:05:45;;;;;;;3.17;1.17;;;15.80;64.80;;;;;;5063580;28;20095;-66
2023/07/21 06:08:12;;;;;;;3.15;1.02;;;15.70;64.80;;;;;;5074807;28;20059;-67
2023/07/21 06:10:40;;;;;;;4.93;1.20;;;15.70;64.00;;;;;;5074394;28;20434;-67
2023/07/21 06:13:08;;;;;;;3.40;1.00;;;15.60;63.90;;;;;;5057632;28;20589;-67
2023/07/21 06:15:36;;;;;;;5.28;0.88;;;15.60;63.80;;;;;;5067131;28;20559;-66
2023/07/21 06:18:05;;;;;;;4.38;1.10;;;15.50;64.20;;;;;;5071423;28;20238;-66
2023/07/21 06:20:33;;;;;;;2.65;0.85;;;15.50;64.20;;;;;;5071408;28;20043;-66
2023/07/21 06:23:01;;;;;;;6.32;1.20;;;15.50;64.90;;;;;;5069822;28;20535;-67
2023/07/21 06:25:28;;;;;;;2.83;0.90;;;15.40;64.10;;;;;;5071348;28;20045;-66
2023/07/21 06:27:57;;;;;;;3.25;1.15;;;15.40;64.10;;;;;;5053812;28;20373;-66
2023/07/21 06:30:24;;;;;;;6.20;1.15;;;15.40;63.30;;;;;;5071360;28;20037;-66
2023/07/21 06:32:52;;;;;;;2.28;0.90;;;15.40;63.70;;;;;;5071859;28;20100;-66
2023/07/21 06:35:19;;;;;;;7.18;1.38;;;15.30;63.60;;;;;;5070817;28;20083;-67
2023/07/21 06:37:47;;;;;;;7.72;1.25;;;15.30;63.50;;;;;;5068615;28;20495;-66
2023/07/21 06:40:14;;;;;;;3.53;1.20;;;15.40;63.50;;;;;;5057728;28;20041;-66
2023/07/21 06:42:44;;;;;;;4.18;1.20;;;15.40;63.40;;;;;;5069502;28;20372;-67
2023/07/21 06:45:12;;;;;;;7.22;1.50;;;15.40;63.30;;;;;;5056400;28;20083;-67
2023/07/21 06:47:39;;;;;;;4.55;1.00;;;15.40;63.90;;;;;;5070748;28;20506;-66
2023/07/21 06:50:11;;;;;;;5.68;1.13;;;15.40;63.60;;;;;;5071222;28;20044;-66
2023/07/21 06:52:39;;;;;;;3.60;1.10;;;15.30;63.40;;;;;;5070771;28;20437;-66
2023/07/21 06:55:07;;;;;;;3.65;1.10;;;15.30;63.60;;;;;;5054757;28;20056;-67
2023/07/21 06:57:34;;;;;;;4.65;0.98;;;15.30;63.00;;;;;;5070584;28;20406;-66
2023/07/21 07:00:03;;;;;;;4.88;1.30;;;15.30;62.70;;;;;;5070528;28;20067;-67
2023/07/21 07:02:30;;;;;;;14.50;1.75;;;15.30;63.10;;;;;;5071124;28;20117;-66
2023/07/21 07:04:58;;;;;;;4.97;1.30;;;15.20;63.40;;;;;;5071235;28;20510;-66
2023/07/21 07:07:27;;;;;;;5.03;1.13;;;15.20;63.40;;;;;;5064586;28;20037;-67
2023/07/21 07:09:55;;;;;;;3.17;1.10;;;15.20;64.00;;;;;;5049707;28;20032;-67
2023/07/21 07:12:22;;;;;;;2.20;0.75;;;15.20;64.20;;;;;;5070477;28;20441;-68
2023/07/21 07:14:50;;;;;;;1.70;1.00;;;15.20;64.10;;;;;;5066532;28;20045;-67
2023/07/21 07:17:17;;;;;;;1.85;1.13;;;15.20;64.20;;;;;;5070676;28;20037;-66
2023/07/21 07:19:45;;;;;;;3.08;0.95;;;15.20;64.20;;;;;;5054076;28;20041;-66
2023/07/21 07:22:12;;;;;;;1.70;1.13;;;15.20;64.00;;;;;;5050421;28;20092;-66
2023/07/21 07:24:40;;;;;;;3.65;1.20;;;15.20;64.20;;;;;;5032467;28;20041;-67
2023/07/21 07:27:07;;;;;;;3.03;1.20;;;15.20;64.70;;;;;;5050440;28;20399;-67
2023/07/21 07:29:35;;;;;;;3.05;1.13;;;15.10;64.90;;;;;;5057832;28;20041;-67
2023/07/21 07:32:03;;;;;;;4.35;1.40;;;15.10;65.10;;;;;;5070385;28;20042;-67
2023/07/21 07:34:30;;;;;;;3.08;0.93;;;15.10;65.50;;;;;;5070450;28;20513;-67
2023/07/21 07:36:59;;;;;;;2.83;1.00;;;15.00;65.80;;;;;;5070089;28;20082;-67
2023/07/21 07:39:26;;;;;;;4.38;1.17;;;15.00;65.40;;;;;;5070270;28;20044;-68
2023/07/21 07:41:53;;;;;;;4.75;0.98;;;15.00;66.00;;;;;;5055903;28;20775;-70
2023/07/21 07:44:20;;;;;;;1.40;0.90;;;15.00;66.00;;;;;;5050298;28;20056;-67
2023/07/21 07:46:48;;;;;;;3.25;1.00;;;14.90;66.00;;;;;;5049841;28;20048;-69
2023/07/21 07:49:15;;;;;;;2.47;1.00;;;14.90;66.10;;;;;;5049781;28;20017;-70
2023/07/21 07:51:42;;;;;;;6.95;1.50;;;14.90;66.40;;;;;;5050769;28;21142;-68
2023/07/21 07:54:09;;;;;;;2.78;1.27;;;14.80;66.50;;;;;;5049250;28;20542;-67
2023/07/21 07:56:38;;;;;;;3.92;1.45;;;14.80;66.60;;;;;;5066067;28;20115;-69
2023/07/21 07:59:05;;;;;;;2.38;1.00;;;14.80;66.10;;;;;;5068981;28;20115;-72
2023/07/21 08:01:32;;;;;;;5.15;1.33;;;14.80;66.10;;;;;;5069573;28;20071;-72
2023/07/21 08:04:00;;;;;;;3.33;1.25;;;14.80;66.20;;;;;;5066780;28;20553;-68
2023/07/21 08:06:27;;;;;;;5.78;1.38;;;14.70;65.80;;;;;;5068455;28;20041;-67
2023/07/21 08:08:54;;;;;;;3.47;1.15;;;14.70;65.90;;;;;;5066897;28;20437;-69
2023/07/21 08:11:22;;;;;;;5.07;1.30;;;14.80;65.80;;;;;;5066388;28;20090;-68
2023/07/21 08:13:49;;;;;;;6.70;1.67;;;14.70;65.90;;;;;;5060029;28;20043;-67
2023/07/21 08:16:16;;;;;;;3.75;1.45;;;14.70;65.70;;;;;;5067458;28;20101;-67
2023/07/21 08:18:44;;;;;;;4.55;1.52;;;14.70;65.70;;;;;;5069613;28;20097;-69
2023/07/21 08:21:24;;;;;;;4.68;1.42;;;14.70;65.90;;;;;;5067353;28;20086;-69
2023/07/21 08:23:52;;;;;;;2.65;1.38;;;14.70;65.70;;;;;;5065288;28;20041;-69
2023/07/21 08:26:20;;;;;;;6.07;1.60;;;14.70;65.80;;;;;;5065361;28;20227;-69
2023/07/21 08:28:47;;;;;;;4.25;1.60;;;14.70;65.70;;;;;;5061285;28;20043;-66
2023/07/21 08:31:15;;;;;;;2.25;1.30;;;14.70;66.00;;;;;;5063586;28;20398;-66
2023/07/21 08:33:46;;;;;;;5.82;1.98;;;14.60;65.60;;;;;;5066571;28;20696;-67
2023/07/21 08:36:13;;;;;;;2.58;1.40;;;14.70;65.70;;;;;;5062601;28;20039;-67
2023/07/21 08:38:40;;;;;;;4.35;1.70;;;14.70;65.20;;;;;;5055074;28;20605;-67
2023/07/21 08:41:09;;;;;;;6.15;2.00;;;14.70;65.20;;;;;;5059785;28;20068;-67
2023/07/21 08:43:37;;;;;;;8.70;1.90;;;14.60;64.70;;;;;;5062423;28;20670;-70
2023/07/21 08:46:08;;;;;;;3.97;1.60;;;14.60;64.50;;;;;;5063211;28;20502;-69
2023/07/21 08:48:36;;;;;;;3.88;1.52;;;14.70;64.60;;;;;;5066847;28;20475;-67
2023/07/21 08:51:06;;;;;;;8.68;1.50;;;14.70;64.30;;;;;;5067158;28;20040;-67
2023/07/21 08:53:33;;;;;;;5.22;1.77;;;14.60;64.30;;;;;;5064672;28;20043;-68
2023/07/21 08:56:01;;;;;;;4.90;1.42;;;14.60;64.50;;;;;;5067808;28;20033;-70
2023/07/21 08:58:29;;;;;;;4.78;1.80;;;14.70;64.40;;;;;;5068215;28;20135;-68
2023/07/21 09:00:57;;;;;;;8.25;1.55;;;14.60;64.40;;;;;;5068984;28;20494;-68
2023/07/21 09:03:29;;;;;;;10.07;1.70;;;14.60;64.10;;;;;;5066924;28;20471;-68
2023/07/21 09:05:57;;;;;;;6.88;1.70;;;14.60;64.10;;;;;;5066569;28;20124;-68
2023/07/21 09:08:29;;;;;;;4.00;1.70;;;14.60;64.10;;;;;;5066842;28;20058;-68
2023/07/21 09:11:03;;;;;;;7.80;1.90;;;14.60;64.30;;;;;;5064863;28;20128;-68
2023/07/21 09:13:31;;;;;;;6.70;1.60;;;14.50;64.60;;;;;;5067755;28;20476;-68
2023/07/21 09:16:00;;;;;;;4.18;1.80;;;14.50;64.90;;;;;;5059411;28;20048;-68
2023/07/21 09:18:31;;;;;;;8.30;1.80;;;14.50;65.10;;;;;;5072329;28;20036;-67
2023/07/21 09:20:58;;;;;;;6.82;1.67;;;14.50;65.40;;;;;;5070933;28;20044;-71
2023/07/21 09:23:29;;;;;;;8.02;2.25;;;14.40;65.50;;;;;;5071889;28;20033;-68
2023/07/21 09:25:57;;;;;;;6.15;2.08;;;14.50;65.60;;;;;;5069662;28;20036;-68
2023/07/21 13:09:31;;;;;;;3.10;1.50;;;13.20;70.50;;;;;;5040991;28;20138;-68
2023/07/21 13:11:58;;;;;;;2.03;1.50;;;13.20;70.60;;;;;;5067156;28;20068;-70
2023/07/21 13:14:25;;;;;;;3.95;1.55;;;13.10;70.80;;;;;;5067715;28;20048;-68
2023/07/21 13:16:53;;;;;;;3.08;1.48;;;13.10;70.80;;;;;;5067971;28;20056;-68
2023/07/21 13:19:20;;;;;;;4.03;1.65;;;13.10;71.00;;;;;;5034237;28;20037;-68
2023/07/21 13:21:47;;;;;;;3.53;1.67;;;13.00;71.10;;;;;;5051665;28;20056;-68
2023/07/21 13:24:14;;;;;;;3.65;1.70;;;13.00;71.20;;;;;;5054403;28;20036;-68
2023/07/21 13:26:42;;;;;;;3.58;1.70;;;13.00;71.30;;;;;;5055416;28;20029;-68
2023/07/21 13:29:11;;;;;;;4.18;1.60;;;13.00;71.50;;;;;;5070386;28;20064;-68
2023/07/21 13:31:39;;;;;;;3.70;1.67;;;12.90;71.60;;;;;;5071175;28;20479;-68
2023/07/21 13:34:06;;;;;;;4.80;1.85;;;12.90;71.80;;;;;;5070585;28;20040;-68
2023/07/21 13:36:34;;;;;;;3.58;2.22;;;12.90;71.90;;;;;;5069766;28;20043;-68
2023/07/21 13:39:02;;;;;;;5.07;1.63;;;12.80;71.90;;;;;;5073101;28;20024;-68
2023/07/21 13:41:32;;;;;;;4.55;1.65;;;12.80;71.80;;;;;;5070953;28;20090;-68
2023/07/21 13:43:59;;;;;;;3.55;1.63;;;12.80;71.90;;;;;;5052475;28;20116;-68
2023/07/21 13:46:26;;;;;;;4.40;1.70;;;12.80;71.80;;;;;;5057514;28;20021;-68
2023/07/21 13:48:54;;;;;;;4.88;1.92;;;12.80;71.70;;;;;;5059404;28;20072;-68
2023/07/21 13:51:21;;;;;;;5.65;1.70;;;12.80;71.50;;;;;;5051329;28;20036;-68
2023/07/21 13:53:48;;;;;;;3.97;1.85;;;12.90;71.30;;;;;;5051021;28;20032;-68
2023/07/21 13:56:16;;;;;;;5.95;1.88;;;12.90;71.20;;;;;;5056291;28;20086;-68
2023/07/21 13:58:43;;;;;;;5.40;1.83;;;12.90;70.90;;;;;;5052033;28;20501;-68
2023/07/21 14:01:11;;;;;;;4.65;1.90;;;12.90;70.40;;;;;;5070682;28;20115;-68
2023/07/21 14:03:38;;;;;;;3.20;1.52;;;12.90;70.00;;;;;;5073598;28;20470;-68
2023/07/21 14:06:05;;;;;;;4.32;1.60;;;12.90;69.50;;;;;;5074343;28;20039;-68
2023/07/21 14:08:33;;;;;;;6.93;1.70;;;13.00;69.20;;;;;;5066209;28;20033;-68
2023/07/21 14:11:00;;;;;;;7.03;1.92;;;12.90;68.70;;;;;;5088052;28;20047;-67
2023/07/21 14:13:27;;;;;;;4.60;1.77;;;12.90;68.60;;;;;;5094786;28;20043;-68
2023/07/21 14:15:54;;;;;;;5.78;1.85;;;12.90;67.80;;;;;;5092880;28;20047;-68
2023/07/21 14:18:25;;;;;;;2.95;1.30;;;12.90;67.70;;;;;;5081176;28;20438;-68
2023/07/21 14:20:52;;;;;;;3.35;1.33;;;12.90;67.30;;;;;;5093818;28;20044;-68
2023/07/21 14:23:19;;;;;;;4.15;1.50;;;12.90;67.00;;;;;;5094548;28;20401;-68
2023/07/21 14:25:47;;;;;;;6.03;1.40;;;13.00;66.90;;;;;;5094229;28;20060;-68
2023/07/21 14:28:14;;;;;;;1.95;1.10;;;12.90;66.60;;;;;;5094201;28;20043;-68
2023/07/21 14:30:41;;;;;;;4.95;1.50;;;12.90;66.50;;;;;;5094761;28;20115;-68
2023/07/21 14:33:08;;;;;;;5.05;1.30;;;12.90;66.10;;;;;;5088654;28;20105;-67
2023/07/21 14:35:35;;;;;;;3.72;1.13;;;12.90;66.00;;;;;;5093584;28;20075;-68
2023/07/21 14:38:03;;;;;;;3.30;1.40;;;12.90;65.80;;;;;;5074350;28;20086;-68
2023/07/21 14:40:30;;;;;;;2.42;1.10;;;12.80;65.50;;;;;;5074221;28;20036;-68
2023/07/21 14:42:57;;;;;;;3.03;1.20;;;12.80;65.60;;;;;;5074484;28;20487;-68
2023/07/21 14:45:24;;;;;;;2.83;1.00;;;12.80;65.30;;;;;;5084679;28;20047;-68
2023/07/21 14:47:52;;;;;;;3.88;1.10;;;12.70;65.30;;;;;;5086984;28;20063;-68
2023/07/21 14:50:20;;;;;;;2.58;1.10;;;12.70;65.50;;;;;;5088701;28;20120;-68
2023/07/21 14:52:47;;;;;;;2.30;1.10;;;12.70;65.50;;;;;;5081511;28;20028;-68
2023/07/21 14:55:15;;;;;;;1.33;0.93;;;12.70;65.30;;;;;;5057675;28;20404;-68
2023/07/21 14:57:42;;;;;;;2.83;1.10;;;12.70;65.50;;;;;;5078032;28;20493;-68
2023/07/21 15:00:16;;;;;;;3.05;0.95;;;12.60;65.50;;;;;;5082537;28;20084;-68
2023/07/21 15:02:43;;;;;;;1.20;0.70;;;12.60;65.60;;;;;;5078684;28;20032;-68
2023/07/21 15:05:11;;;;;;;4.13;0.90;;;12.50;65.50;;;;;;5092664;28;20050;-68
2023/07/21 15:07:38;;;;;;;2.45;1.38;;;12.50;65.70;;;;;;5085130;28;20032;-68
2023/07/21 15:10:05;;;;;;;2.22;1.20;;;12.50;66.00;;;;;;5086012;28;20502;-68
2023/07/21 15:12:33;;;;;;;2.45;1.00;;;12.40;66.00;;;;;;5092714;28;20105;-68
2023/07/21 15:15:00;;;;;;;1.40;0.98;;;12.40;66.00;;;;;;5093122;28;20040;-68
2023/07/21 15:17:27;;;;;;;1.95;1.10;;;12.40;66.00;;;;;;5093923;28;20060;-68
2023/07/21 15:19:54;;;;;;;1.25;0.90;;;12.40;65.90;;;;;;5093017;28;20059;-68
2023/07/21 15:22:22;;;;;;;1.40;0.90;;;12.40;66.00;;;;;;5092710;28;20085;-67
2023/07/21 15:24:49;;;;;;;4.18;1.10;;;12.30;65.90;;;;;;5090599;28;20040;-68
2023/07/21 15:27:17;;;;;;;2.03;1.10;;;12.30;66.20;;;;;;5093505;28;20071;-67
2023/07/21 15:29:44;;;;;;;2.78;0.95;;;12.30;66.50;;;;;;5093531;28;20048;-68
2023/07/21 15:32:11;;;;;;;0.90;0.90;;;12.20;66.70;;;;;;5092793;28;20060;-67
2023/07/21 15:34:39;;;;;;;1.83;1.10;;;12.20;67.00;;;;;;5091932;28;20162;-68
2023/07/21 15:37:06;;;;;;;2.83;1.02;;;12.20;67.30;;;;;;5093161;28;20047;-67
2023/07/21 15:39:34;;;;;;;1.48;1.08;;;12.10;67.70;;;;;;5093600;28;20260;-67
2023/07/21 15:42:01;;;;;;;3.10;1.20;;;12.10;68.10;;;;;;5081291;28;20086;-68
2023/07/21 15:44:29;;;;;;;5.05;1.35;;;12.10;68.50;;;;;;5074299;28;20082;-68
2023/07/21 15:46:56;;;;;;;2.25;1.20;;;12.00;69.00;;;;;;5092524;28;20089;-67
2023/07/21 15:49:23;;;;;;;2.03;1.20;;;11.90;69.10;;;;;;5093185;28;20541;-68
2023/07/21 15:51:50;;;;;;;3.03;1.17;;;12.00;69.20;;;;;;5093217;28;20531;-68
2023/07/21 15:54:18;;;;;;;2.65;1.30;;;11.90;69.40;;;;;;5093312;28;20036;-67
2023/07/21 15:56:45;;;;;;;3.47;1.30;;;11.80;69.60;;;;;;5085368;28;20041;-68
2023/07/21 15:59:12;;;;;;;3.25;1.35;;;11.80;70.00;;;;;;5084554;28;20057;-67
2023/07/21 16:01:39;;;;;;;2.92;1.30;;;11.70;70.20;;;;;;5092209;28;20045;-68
2023/07/21 16:04:08;;;;;;;3.20;1.67;;;11.70;70.30;;;;;;5089152;28;20024;-68
2023/07/21 16:06:35;;;;;;;3.70;1.40;;;11.70;70.40;;;;;;5088556;28;20115;-67
2023/07/21 16:09:03;;;;;;;2.63;1.25;;;11.70;70.60;;;;;;5082171;28;20036;-68
2023/07/21 16:11:31;;;;;;;3.05;1.50;;;11.70;70.60;;;;;;5092701;28;20053;-68
2023/07/21 16:13:58;;;;;;;2.28;1.45;;;11.60;70.90;;;;;;5092742;28;20028;-68
2023/07/21 16:16:26;;;;;;;1.98;1.30;;;11.60;70.80;;;;;;5085030;28;20040;-67
2023/07/21 16:18:54;;;;;;;2.45;1.48;;;11.50;70.90;;;;;;5091342;28;20067;-67
2023/07/21 16:21:21;;;;;;;3.55;1.63;;;11.50;71.20;;;;;;5091173;28;20367;-67
2023/07/21 16:23:49;;;;;;;3.00;1.58;;;11.50;71.30;;;;;;5092448;28;20046;-68
2023/07/21 16:26:18;;;;;;;1.92;1.23;;;11.40;71.50;;;;;;5075541;28;20449;-68
2023/07/21 16:28:45;;;;;;;1.80;1.42;;;11.40;71.00;;;;;;5075888;28;20471;-67
2023/07/21 16:31:12;;;;;;;3.25;1.65;;;11.40;71.10;;;;;;5077853;28;20020;-68
2023/07/21 16:33:40;;;;;;;2.90;1.30;;;11.30;71.00;;;;;;5091206;28;20494;-67
2023/07/21 16:36:07;;;;;;;2.38;1.35;;;11.30;71.00;;;;;;5087761;28;20103;-68
2023/07/21 16:38:34;;;;;;;2.85;1.20;;;11.30;70.80;;;;;;5087319;28;20045;-68
2023/07/21 16:41:04;;;;;;;2.00;1.40;;;11.30;70.80;;;;;;5072410;28;20071;-67
2023/07/21 16:43:32;;;;;;;1.67;1.17;;;11.20;70.70;;;;;;5080784;28;20081;-68
2023/07/21 16:45:59;;;;;;;2.00;1.20;;;11.20;70.90;;;;;;5092532;28;20032;-68
2023/07/21 16:48:26;;;;;;;3.95;1.30;;;11.20;70.90;;;;;;5092327;28;20056;-67
2023/07/21 16:50:53;;;;;;;3.70;1.63;;;11.20;70.90;;;;;;5074157;28;20033;-68
2023/07/21 16:53:22;;;;;;;3.55;1.50;;;11.10;70.80;;;;;;5072143;28;20089;-67
2023/07/21 16:55:50;;;;;;;4.90;1.52;;;11.20;70.70;;;;;;5078086;28;20079;-68
2023/07/21 16:58:18;;;;;;;3.63;1.35;;;11.10;70.90;;;;;;5071402;28;20032;-67
2023/07/21 17:00:45;;;;;;;2.05;1.20;;;11.10;71.10;;;;;;5095256;28;20032;-68
2023/07/21 17:03:13;;;;;;;1.65;1.10;;;11.10;70.80;;;;;;5091683;28;20037;-68
2023/07/21 17:05:40;;;;;;;3.45;1.38;;;11.10;70.90;;;;;;5080990;28;20398;-67
2023/07/21 17:08:08;;;;;;;3.50;1.30;;;11.00;71.10;;;;;;5089431;28;20500;-68
2023/07/21 17:10:36;;;;;;;3.55;1.45;;;11.00;71.00;;;;;;5090428;28;20040;-67
2023/07/21 17:13:04;;;;;;;2.45;1.48;;;11.10;71.10;;;;;;5074199;28;20040;-67
2023/07/21 17:15:31;;;;;;;3.20;1.30;;;11.00;70.90;;;;;;5089522;28;20044;-67
2023/07/21 17:18:02;;;;;;;2.10;1.17;;;11.00;71.10;;;;;;5055741;28;20040;-68
2023/07/21 17:20:29;;;;;;;2.33;1.40;;;11.00;71.10;;;;;;5077804;28;20041;-68
2023/07/21 17:22:56;;;;;;;1.70;1.15;;;10.90;71.10;;;;;;5087580;28;20032;-67
2023/07/21 17:25:27;;;;;;;2.55;1.00;;;10.90;71.10;;;;;;5083528;28;20036;-68
2023/07/21 17:27:54;;;;;;;2.05;1.33;;;10.90;71.00;;;;;;5057711;28;20494;-67
2023/07/21 17:30:21;;;;;;;1.98;1.20;;;10.90;70.80;;;;;;5087783;28;20064;-67
2023/07/21 17:32:48;;;;;;;3.10;1.75;;;10.90;70.90;;;;;;5090872;28;20046;-68
2023/07/21 17:35:16;;;;;;;2.05;1.20;;;10.80;70.90;;;;;;5091554;28;20044;-67
2023/07/21 17:37:43;;;;;;;1.88;1.13;;;10.80;70.90;;;;;;5092966;28;20044;-67
2023/07/21 17:40:11;;;;;;;2.50;1.00;;;10.80;70.70;;;;;;5094297;28;20032;-67
2023/07/21 17:42:39;;;;;;;2.95;1.40;;;10.80;70.50;;;;;;5094471;28;20551;-67
2023/07/21 17:45:06;;;;;;;2.88;1.30;;;10.80;70.30;;;;;;5095876;28;20478;-67
2023/07/21 17:47:34;;;;;;;4.97;1.20;;;10.80;70.00;;;;;;5094241;28;20063;-67
2023/07/21 18:14:27;;;;;;;2.25;0.73;;;10.60;68.80;;;;;;5083460;28;20051;-67
2023/07/21 18:16:54;;;;;;;1.98;1.00;;;10.60;68.60;;;;;;5073857;28;20056;-67
2023/07/21 18:19:22;;;;;;;1.73;1.08;;;10.50;68.30;;;;;;5073431;28;20048;-67
2023/07/21 18:21:49;;;;;;;1.15;0.90;;;10.50;68.10;;;;;;5074886;28;20024;-67
2023/07/21 18:24:17;;;;;;;2.72;1.38;;;10.50;68.20;;;;;;5056310;28;20040;-67
2023/07/21 18:26:44;;;;;;;3.22;1.30;;;10.50;68.00;;;;;;5072414;28;20780;-67
2023/07/21 18:29:11;;;;;;;1.58;1.10;;;10.50;67.90;;;;;;5055143;28;20090;-68
2023/07/21 18:31:38;;;;;;;2.83;1.20;;;10.40;67.70;;;;;;5071993;28;20033;-67
2023/07/21 18:34:06;;;;;;;2.78;0.93;;;10.40;67.50;;;;;;5068675;28;20403;-69
2023/07/21 18:36:33;;;;;;;2.55;1.30;;;10.40;67.30;;;;;;5068913;28;20068;-67
2023/07/21 18:39:00;;;;;;;3.00;1.35;;;10.40;67.30;;;;;;5065189;28;20025;-67
2023/07/21 18:41:27;;;;;;;1.98;1.20;;;10.40;66.90;;;;;;5073834;28;20090;-67
2023/07/21 18:43:55;;;;;;;1.85;0.90;;;10.30;66.40;;;;;;5070213;28;20545;-67
2023/07/21 18:46:22;;;;;;;4.85;1.23;;;10.30;66.20;;;;;;5067413;28;20137;-66
2023/07/21 18:48:50;;;;;;;2.50;1.10;;;10.30;65.90;;;;;;5063129;28;20041;-67
2023/07/21 18:51:17;;;;;;;3.92;1.00;;;10.30;65.40;;;;;;5044190;28;20037;-67
2023/07/21 18:53:44;;;;;;;4.05;1.10;;;10.30;65.40;;;;;;5070004;28;20036;-67
2023/07/21 18:56:12;;;;;;;5.55;1.30;;;10.30;65.10;;;;;;5070131;28;20036;-67
2023/07/21 18:58:39;;;;;;;1.90;1.20;;;10.30;64.90;;;;;;5069522;28;20345;-67
2023/07/21 19:01:06;;;;;;;1.85;1.17;;;10.30;64.80;;;;;;5070662;28;20106;-68
2023/07/21 19:03:33;;;;;;;2.75;1.10;;;10.30;64.70;;;;;;5061701;28;20110;-68
2023/07/21 19:06:04;;;;;;;3.63;1.20;;;10.20;64.50;;;;;;5053147;28;20063;-67
2023/07/21 19:08:31;;;;;;;;;;;10.20;64.40;;;;;;5051065;28;20041;-67
2023/07/21 19:10:58;;;;;;;2.53;1.30;;;10.20;64.50;;;;;;5059438;28;19985;-68
2023/07/21 19:13:25;;;;;;;1.10;1.00;;;10.20;64.50;;;;;;5072620;28;20511;-68
2023/07/21 19:15:53;;;;;;;5.43;1.10;;;10.20;64.50;;;;;;5089930;28;20421;-67
2023/07/21 19:18:20;;;;;;;3.40;1.20;;;10.20;64.40;;;;;;5070610;28;20446;-67
2023/07/21 19:20:48;;;;;;;3.22;1.25;;;10.20;64.40;;;;;;5081287;28;20414;-67
2023/07/21 19:23:16;;;;;;;3.05;1.67;;;10.20;64.30;;;;;;5070946;28;20029;-68
2023/07/21 19:25:50;;;;;;;2.95;1.75;;;10.20;64.50;;;;;;5070401;28;20438;-68
2023/07/21 19:28:17;;;;;;;3.00;0.95;;;10.20;64.40;;;;;;5077737;28;20486;-67
2023/07/21 19:30:45;;;;;;;6.75;1.17;;;10.20;64.30;;;;;;5083683;28;20065;-67
2023/07/21 19:33:12;;;;;;;2.05;1.10;;;10.20;64.30;;;;;;5087748;28;20103;-66
2023/07/21 19:35:40;;;;;;;2.45;0.95;;;10.20;64.60;;;;;;5091095;28;20485;-67
2023/07/21 19:38:07;;;;;;;2.95;1.27;;;10.20;64.50;;;;;;5079751;28;20036;-67
2023/07/21 19:40:38;;;;;;;4.45;1.20;;;10.10;65.10;;;;;;5068050;28;20044;-68
2023/07/21 19:43:04;;;;;;;;;;;10.10;64.70;;;;;;5079545;28;20079;-67
2023/07/21 19:45:36;;;;;;;3.95;1.88;;;10.10;64.70;;;;;;5084988;28;19912;-66
2023/07/21 19:48:06;;;;;;;3.15;1.25;;;10.10;65.00;;;;;;5087851;28;20040;-67
2023/07/21 19:50:39;;;;;;;4.72;1.30;;;10.00;65.40;;;;;;5089488;28;20558;-67
2023/07/21 19:53:07;;;;;;;3.85;1.40;;;10.00;65.40;;;;;;5090337;28;20032;-67
2023/07/21 19:55:38;;;;;;;5.22;1.10;;;9.90;65.60;;;;;;5073415;28;20394;-67
2023/07/21 19:58:05;;;;;;;;;;;9.90;65.80;;;;;;5069974;28;20048;-67
2023/07/21 20:00:33;;;;;;;2.65;1.23;;;9.90;66.50;;;;;;5069924;28;19931;-67
2023/07/21 20:03:00;;;;;;;3.22;1.20;;;9.90;67.20;;;;;;5069306;28;20033;-67
2023/07/21 20:05:27;;;;;;;2.90;1.35;;;9.80;67.80;;;;;;5051487;28;20458;-67
2023/07/21 20:07:55;;;;;;;2.30;1.05;;;9.80;67.70;;;;;;5069374;28;20040;-67
2023/07/21 20:10:22;;;;;;;5.85;1.27;;;9.80;68.00;;;;;;5072079;28;20029;-66
2023/07/21 20:12:53;;;;;;;2.05;1.20;;;9.80;67.90;;;;;;5070497;28;20064;-67
2023/07/21 20:15:20;;;;;;;3.05;1.38;;;9.70;67.80;;;;;;5069179;28;20056;-68
2023/07/21 20:17:48;;;;;;;4.15;1.60;;;9.70;67.50;;;;;;5069623;28;20569;-68
2023/07/21 20:20:15;;;;;;;1.85;1.40;;;9.70;68.40;;;;;;5066961;28;20490;-67
2023/07/21 20:22:42;;;;;;;5.82;1.50;;;9.60;68.90;;;;;;5052674;28;20028;-67
2023/07/21 20:25:11;;;;;;;2.72;1.40;;;9.50;69.40;;;;;;5052676;28;20047;-67
2023/07/21 20:27:38;;;;;;;2.03;1.35;;;9.60;69.20;;;;;;5068813;28;20076;-67
2023/07/21 20:30:06;;;;;;;2.00;1.45;;;9.50;69.40;;;;;;5066806;28;20119;-67
2023/07/21 20:32:33;;;;;;;3.45;1.60;;;9.40;69.60;;;;;;5066466;28;20048;-67
2023/07/21 20:35:00;;;;;;;2.67;1.30;;;9.40;69.90;;;;;;5068471;28;20052;-67
2023/07/21 20:37:28;;;;;;;5.35;1.75;;;9.30;70.00;;;;;;5071155;28;20036;-67
2023/07/21 20:39:55;;;;;;;3.05;1.70;;;9.30;70.20;;;;;;5068227;28;20033;-67
2023/07/21 20:42:22;;;;;;;2.35;1.50;;;9.20;70.30;;;;;;5056891;28;20117;-67
2023/07/21 20:44:49;;;;;;;4.30;1.70;;;9.20;70.50;;;;;;5069235;28;20036;-68
2023/07/21 20:47:17;;;;;;;2.55;1.38;;;9.20;71.20;;;;;;5064342;28;20040;-67
2023/07/21 20:49:44;;;;;;;3.15;1.60;;;9.20;70.90;;;;;;5049632;28;20103;-67
2023/07/21 20:52:12;;;;;;;4.57;1.50;;;9.20;71.40;;;;;;5058925;28;20055;-67
2023/07/21 20:54:39;;;;;;;1.98;1.27;;;9.20;71.50;;;;;;5067601;28;20411;-67
2023/07/21 20:57:07;;;;;;;2.42;1.30;;;9.10;71.00;;;;;;5063177;28;20043;-67
2023/07/21 20:59:34;;;;;;;3.25;1.20;;;9.10;71.10;;;;;;5074670;28;20094;-68
2023/07/21 21:02:01;;;;;;;4.00;1.42;;;9.10;71.10;;;;;;5079581;28;20036;-67
2023/07/21 21:04:28;;;;;;;3.53;1.60;;;9.10;71.30;;;;;;5062654;28;20472;-67
2023/07/21 21:06:56;;;;;;;2.60;1.40;;;9.10;70.80;;;;;;5048684;28;20033;-67
2023/07/21 21:09:23;;;;;;;2.38;1.40;;;9.00;71.00;;;;;;5068297;28;20040;-67
2023/07/21 21:11:50;;;;;;;2.78;1.50;;;9.10;71.10;;;;;;5068056;28;20059;-69
2023/07/21 21:14:17;;;;;;;2.60;1.33;;;9.10;71.20;;;;;;5072349;28;20044;-67
2023/07/21 21:16:44;;;;;;;3.42;1.63;;;9.10;71.10;;;;;;5073232;28;20177;-67
2023/07/21 21:19:12;;;;;;;2.25;1.38;;;9.00;71.40;;;;;;5072431;28;20518;-67
2023/07/21 21:21:39;;;;;;;2.60;1.55;;;9.00;70.80;;;;;;5058473;28;20094;-67
2023/07/21 21:24:06;;;;;;;3.63;1.50;;;9.00;71.40;;;;;;5073070;28;20051;-67
2023/07/21 21:26:33;;;;;;;4.03;1.40;;;9.10;71.20;;;;;;5072209;28;20044;-67
2023/07/21 21:29:01;;;;;;;5.28;1.48;;;9.00;71.50;;;;;;5070111;28;20052;-68
2023/07/21 21:31:28;;;;;;;3.45;1.58;;;9.00;71.00;;;;;;5070160;28;20086;-68
2023/07/21 21:33:55;;;;;;;2.15;1.25;;;9.00;70.90;;;;;;5070846;28;20857;-68
2023/07/21 21:36:22;;;;;;;5.05;1.40;;;9.00;71.30;;;;;;5072797;28;20048;-68
2023/07/21 21:38:50;;;;;;;6.90;2.15;;;9.10;71.00;;;;;;5071771;28;20409;-68
2023/07/21 21:41:17;;;;;;;1.88;1.20;;;9.10;71.50;;;;;;5071159;28;20406;-71
2023/07/21 21:43:44;;;;;;;1.40;1.15;;;9.10;71.20;;;;;;5068618;28;20032;-70
2023/07/21 21:46:11;;;;;;;1.92;1.17;;;9.10;70.50;;;;;;5064739;28;20108;-69
2023/07/21 21:48:39;;;;;;;7.60;1.50;;;9.10;70.50;;;;;;5067992;28;20150;-69
2023/07/21 21:51:06;;;;;;;3.97;1.48;;;9.10;70.90;;;;;;5068660;28;20102;-70
2023/07/21 21:53:33;;;;;;;2.78;1.50;;;9.20;70.50;;;;;;5071258;28;20541;-69
2023/07/21 21:56:01;;;;;;;5.25;1.45;;;9.20;70.40;;;;;;5064227;28;20049;-69
2023/07/21 21:58:32;;;;;;;3.35;1.30;;;9.20;69.70;;;;;;5066129;28;20135;-69
2023/07/21 22:01:01;;;;;;;5.07;1.50;;;9.20;69.20;;;;;;5069337;28;20064;-69
2023/07/21 22:03:33;;;;;;;2.55;1.50;;;9.30;69.50;;;;;;5060410;28;20033;-69
2023/07/21 22:06:01;;;;;;;2.75;1.45;;;9.30;68.70;;;;;;5064684;28;20085;-69
2023/07/21 22:08:28;;;;;;;3.55;1.75;;;9.40;69.30;;;;;;5071121;28;20098;-68
2023/07/21 22:10:56;;;;;;;4.07;1.38;;;9.40;68.70;;;;;;5070036;28;20024;-68
2023/07/21 22:13:23;;;;;;;2.47;1.50;;;9.50;68.20;;;;;;5065260;28;20040;-72
2023/07/21 22:15:50;;;;;;;2.50;1.30;;;9.50;67.80;;;;;;5059263;28;20570;-72
2023/07/21 22:18:17;;;;;;;2.63;1.50;;;9.60;67.40;;;;;;5052461;28;20047;-73
2023/07/21 22:20:44;;;;;;;2.70;1.52;;;9.60;67.40;;;;;;5055512;28;20056;-73
2023/07/21 22:23:12;;;;;;;3.40;1.45;;;9.60;67.00;;;;;;5067328;28;20167;-72
2023/07/21 22:25:39;;;;;;;3.15;1.40;;;9.70;66.70;;;;;;5074668;28;20035;-72
2023/07/21 22:28:06;;;;;;;2.50;1.30;;;9.70;66.50;;;;;;5071220;28;20055;-72
2023/07/21 22:30:34;;;;;;;3.13;1.70;;;9.70;66.20;;;;;;5059471;28;20499;-72
2023/07/21 22:33:02;;;;;;;4.03;1.70;;;9.80;66.00;;;;;;5062600;28;20041;-68
2023/07/21 22:35:30;;;;;;;3.70;1.60;;;9.80;65.80;;;;;;5070888;28;20057;-68
2023/07/21 22:37:57;;;;;;;2.55;1.50;;;9.90;65.40;;;;;;5058100;28;20080;-68
2023/07/21 22:40:25;;;;;;;3.00;1.50;;;10.00;65.00;;;;;;5051555;28;20040;-68